createdAt,value
2024-05-09T08:46:19.383Z,96964.84
2024-05-09T08:48:46.603Z,96962.06
2024-05-09T08:51:13.621Z,96968.78
2024-05-09T08:53:40.562Z,96960.88
2024-05-09T08:56:07.500Z,96962.31
2024-05-09T08:58:34.401Z,96961.66
2024-05-09T09:01:01.545Z,96959.34
2024-05-09T09:03:28.747Z,96962.47
2024-05-09T09:05:55.745Z,96965.22
2024-05-09T09:08:22.722Z,96958.06
2024-05-09T09:10:49.715Z,96967.09
2024-05-09T09:13:16.850Z,96961.66
2024-05-09T09:15:43.953Z,96963.50
2024-05-09T09:18:12.324Z,96969.81
2024-05-09T09:20:39.397Z,96968.88
2024-05-09T09:23:06.297Z,96969.88
2024-05-09T09:25:33.289Z,96968.53
2024-05-09T09:28:00.280Z,96964.59
2024-05-09T09:30:35.040Z,96963.66
2024-05-09T09:33:04.882Z,96964.09
2024-05-09T09:35:32.034Z,96959.72
2024-05-09T09:37:58.932Z,96970.50
2024-05-09T09:40:32.081Z,96969.03
2024-05-09T09:43:01.027Z,96968.38
2024-05-09T09:45:28.038Z,96973.03
2024-05-09T09:47:55.126Z,96968.50
2024-05-09T09:50:27.908Z,96964.31
2024-05-09T09:53:00.991Z,96977.09
2024-05-09T09:55:28.041Z,96969.72
2024-05-09T09:57:54.650Z,96983.78
2024-05-09T10:00:27.068Z,96978.75
2024-05-09T10:02:58.733Z,96971.00
2024-05-09T10:05:25.610Z,96963.84
2024-05-09T10:07:52.309Z,96959.56
2024-05-09T10:10:26.910Z,96953.50
2024-05-09T10:12:58.374Z,96951.28
2024-05-09T10:15:24.992Z,96961.97
2024-05-09T10:17:51.630Z,96956.16
2024-05-09T10:20:22.060Z,96951.31
2024-05-09T10:22:54.220Z,96953.88
2024-05-09T10:25:21.010Z,96946.44
2024-05-09T10:27:47.702Z,96946.91
2024-05-09T10:30:17.925Z,96950.47
2024-05-09T10:32:52.011Z,96960.56
2024-05-09T10:35:18.670Z,96955.22
2024-05-09T10:37:45.240Z,96948.44
2024-05-09T10:40:17.371Z,96953.25
2024-05-09T10:42:49.689Z,96953.03
2024-05-09T10:45:16.212Z,96945.34
2024-05-09T10:47:42.824Z,96945.34
2024-05-09T10:50:18.328Z,96945.34
2024-05-09T10:52:51.912Z,96947.16
2024-05-09T10:55:18.669Z,96950.00
2024-05-09T10:57:45.684Z,96944.06
2024-05-09T11:00:18.851Z,96958.31
2024-05-09T11:02:50.239Z,96945.19
2024-05-09T11:05:17.466Z,96940.31
2024-05-09T11:07:44.626Z,96942.84
2024-05-09T11:10:14.557Z,96931.75
2024-05-09T11:12:41.709Z,96929.03
2024-05-09T11:15:08.678Z,96922.41
2024-05-09T11:17:35.673Z,96923.88
2024-05-09T11:20:06.229Z,96925.44
2024-05-09T11:22:37.506Z,96931.13
2024-05-09T11:25:04.727Z,96925.97
2024-05-09T11:27:32.200Z,96916.13
2024-05-09T11:29:59.256Z,96919.66
2024-05-09T11:32:26.314Z,96914.19
2024-05-09T11:34:53.341Z,96913.31
2024-05-09T11:37:20.290Z,96913.50
2024-05-09T11:39:47.498Z,96913.38
2024-05-09T11:42:14.793Z,96922.13
2024-05-09T11:44:41.763Z,96915.69
2024-05-09T11:47:08.726Z,96917.84
2024-05-09T11:49:35.850Z,96915.84
2024-05-09T11:52:03.000Z,96905.19
2024-05-09T11:54:30.001Z,96903.03
2024-05-09T11:56:56.971Z,96904.25
2024-05-09T11:59:24.018Z,96906.56
2024-05-09T12:01:50.652Z,96909.75
2024-05-09T12:04:17.492Z,96902.84
2024-05-09T12:06:44.152Z,96908.97
2024-05-09T12:09:10.945Z,96897.59
2024-05-09T12:11:37.687Z,96895.94
2024-05-09T12:14:04.305Z,96894.25
2024-05-09T12:16:34.088Z,96892.41
2024-05-09T12:19:00.925Z,96882.09
2024-05-09T12:21:27.665Z,96881.19
2024-05-09T12:23:54.247Z,96879.22
2024-05-09T12:26:20.764Z,96882.06
2024-05-09T12:28:47.288Z,96873.91
2024-05-09T12:31:13.931Z,96882.56
2024-05-09T12:33:40.521Z,96868.19
2024-05-09T12:36:07.111Z,96865.13
2024-05-09T12:38:33.628Z,96866.44
2024-05-09T12:41:00.331Z,96863.75
2024-05-09T12:43:27.059Z,96875.09
2024-05-09T12:45:53.745Z,96865.47
2024-05-09T12:48:20.380Z,96860.94
2024-05-09T12:50:47.099Z,96866.03
2024-05-09T12:53:13.694Z,96865.53
2024-05-09T12:55:48.192Z,96860.00
2024-05-09T12:58:20.526Z,96857.44
2024-05-09T13:00:47.736Z,96855.91
2024-05-09T13:03:15.222Z,96868.34
2024-05-09T13:05:42.527Z,96855.19
2024-05-09T13:08:09.531Z,96856.06
2024-05-09T13:10:36.508Z,96851.97
2024-05-09T13:13:03.563Z,96845.75
2024-05-09T13:15:30.992Z,96845.13
2024-05-09T13:18:01.648Z,96843.16
2024-05-09T13:20:33.526Z,96854.38
2024-05-09T13:23:02.544Z,96839.59
2024-05-09T13:25:29.594Z,96843.16
2024-05-09T13:27:56.758Z,96856.72
2024-05-09T13:30:29.893Z,96851.88
2024-05-09T13:33:05.742Z,96842.03
2024-05-09T13:35:33.146Z,96843.50
2024-05-09T13:38:00.050Z,96838.06
2024-05-09T13:40:33.007Z,96828.59
2024-05-09T13:43:02.533Z,96837.47
2024-05-09T13:45:29.736Z,96832.72
2024-05-09T13:47:57.090Z,96824.91
2024-05-09T13:50:32.972Z,96818.56
2024-05-09T13:53:02.801Z,96812.25
2024-05-09T13:55:29.752Z,96817.00
2024-05-09T13:57:56.810Z,96814.91
2024-05-09T14:02:54.008Z,96812.84
2024-05-09T14:05:21.242Z,96817.38
2024-05-09T14:07:48.289Z,96815.78
2024-05-09T14:10:22.924Z,96816.19
2024-05-09T14:12:55.603Z,96816.47
2024-05-09T14:15:22.629Z,96816.88
2024-05-09T14:17:49.676Z,96813.34
2024-05-09T14:20:23.721Z,96812.56
2024-05-09T14:22:57.433Z,96814.31
2024-05-09T14:25:24.393Z,96813.56
2024-05-09T14:27:51.467Z,96805.97
2024-05-09T14:30:26.076Z,96810.56
2024-05-09T14:33:01.239Z,96801.84
2024-05-09T14:35:28.373Z,96802.25
2024-05-09T14:37:55.343Z,96813.88
2024-05-09T14:40:35.552Z,96802.97
2024-05-09T14:43:07.767Z,96802.69
2024-05-09T14:45:34.929Z,96793.25
2024-05-09T14:48:02.091Z,96800.38
2024-05-09T14:50:35.596Z,96788.03
2024-05-09T14:53:05.599Z,96803.41
2024-05-09T14:55:32.666Z,96795.75
2024-05-09T14:57:59.629Z,96799.84
2024-05-09T15:00:33.042Z,96789.63
2024-05-09T15:03:03.175Z,96792.13
2024-05-09T15:05:30.523Z,96784.81
2024-05-09T15:07:57.655Z,96789.53
2024-05-09T15:10:33.653Z,96790.00
2024-05-09T15:13:02.982Z,96798.78
2024-05-09T15:15:30.307Z,96795.28
2024-05-09T15:17:57.382Z,96791.88
2024-05-09T15:20:32.945Z,96788.56
2024-05-09T15:23:03.004Z,96786.97
2024-05-09T15:25:30.663Z,96787.63
2024-05-09T15:27:57.837Z,96789.28
2024-05-09T15:30:30.931Z,96784.03
2024-05-09T15:33:00.845Z,96772.31
2024-05-09T15:35:30.459Z,96783.66
2024-05-09T15:37:57.408Z,96772.84
2024-05-09T15:40:31.722Z,96778.47
2024-05-09T15:43:05.126Z,96782.44
2024-05-09T15:45:32.049Z,96779.91
2024-05-09T15:47:58.910Z,96778.69
2024-05-09T15:50:35.355Z,96781.38
2024-05-09T15:53:05.879Z,96768.91
2024-05-09T15:55:32.523Z,96778.16
2024-05-09T15:57:59.071Z,96791.00
2024-05-09T16:00:35.935Z,96784.38
2024-05-09T16:03:06.233Z,96782.53
2024-05-09T16:05:33.242Z,96776.06
2024-05-09T16:07:59.977Z,96768.72
2024-05-09T16:10:32.346Z,96765.25
2024-05-09T16:13:00.708Z,96771.72
2024-05-09T16:15:27.393Z,96766.75
2024-05-09T16:17:54.259Z,96759.88
2024-05-09T16:20:33.721Z,96761.66
2024-05-09T16:23:05.650Z,96755.75
2024-05-09T16:25:32.317Z,96750.09
2024-05-09T16:27:58.999Z,96763.47
2024-05-09T16:30:32.109Z,96755.44
2024-05-09T16:33:02.001Z,96757.97
2024-05-09T16:35:28.787Z,96753.22
2024-05-09T16:37:55.297Z,96759.25
2024-05-09T16:40:30.170Z,96743.69
2024-05-09T16:43:04.643Z,96750.81
2024-05-09T16:45:31.993Z,96750.34
2024-05-09T16:47:59.385Z,96748.56
2024-05-09T16:50:31.838Z,96757.66
2024-05-09T16:53:00.775Z,96752.44
2024-05-09T16:55:28.028Z,96747.69
2024-05-09T16:57:55.204Z,96744.38
2024-05-09T17:00:31.563Z,96750.47
2024-05-09T17:03:07.288Z,96744.81
2024-05-09T17:05:35.365Z,96742.47
2024-05-09T17:08:02.872Z,96745.09
2024-05-09T17:10:33.564Z,96752.47
2024-05-09T17:13:02.314Z,96755.47
2024-05-09T17:15:30.009Z,96749.94
2024-05-09T17:17:57.156Z,96750.16
2024-05-09T17:20:31.751Z,96742.94
2024-05-09T17:23:01.965Z,96743.31
2024-05-09T17:25:29.038Z,96736.41
2024-05-09T17:27:56.084Z,96751.94
2024-05-09T17:30:28.979Z,96746.59
2024-05-09T17:33:02.124Z,96748.06
2024-05-09T17:35:29.285Z,96751.00
2024-05-09T17:37:56.232Z,96754.47
2024-05-09T17:40:31.002Z,96749.25
2024-05-09T17:43:01.933Z,96750.16
2024-05-09T17:45:29.089Z,96746.81
2024-05-09T17:47:56.235Z,96745.44
2024-05-09T17:50:30.327Z,96747.09
2024-05-09T17:53:01.765Z,96742.66
2024-05-09T17:55:29.003Z,96745.91
2024-05-09T17:57:56.159Z,96747.75
2024-05-09T18:00:33.117Z,96748.56
2024-05-09T18:03:05.879Z,96751.88
2024-05-09T18:05:33.324Z,96752.72
2024-05-09T18:08:00.469Z,96747.41
2024-05-09T18:10:35.170Z,96751.72
2024-05-09T18:13:05.581Z,96756.53
2024-05-09T18:15:33.157Z,96760.28
2024-05-09T18:18:00.447Z,96763.72
2024-05-09T18:20:37.544Z,96756.91
2024-05-09T18:23:10.273Z,96761.41
2024-05-09T18:25:37.189Z,96755.50
2024-05-09T18:28:04.311Z,96759.69
2024-05-09T18:30:35.028Z,96758.06
2024-05-09T18:33:04.026Z,96759.28
2024-05-09T18:35:31.308Z,96757.06
2024-05-09T18:37:59.158Z,96746.50
2024-05-09T18:40:32.957Z,96750.78
2024-05-09T18:43:03.490Z,96753.81
2024-05-09T18:45:31.003Z,96750.28
2024-05-09T18:47:57.810Z,96749.31
2024-05-09T18:50:32.335Z,96756.81
2024-05-09T18:53:03.208Z,96754.84
2024-05-09T18:55:29.712Z,96759.59
2024-05-09T18:57:56.447Z,96758.16
2024-05-09T19:00:32.580Z,96751.84
2024-05-09T19:03:02.932Z,96767.66
2024-05-09T19:05:29.876Z,96758.94
2024-05-09T19:07:56.525Z,96759.72
2024-05-09T19:10:26.322Z,96765.16
2024-05-09T19:12:58.734Z,96772.09
2024-05-09T19:15:25.324Z,96764.78
2024-05-09T19:17:51.996Z,96769.00
2024-05-09T19:20:25.306Z,96771.84
2024-05-09T19:22:58.058Z,96770.25
2024-05-09T19:25:24.579Z,96771.94
2024-05-09T19:27:51.152Z,96773.88
2024-05-09T19:30:25.509Z,96772.66
2024-05-09T19:33:01.055Z,96768.66
2024-05-09T19:35:27.658Z,96777.53
2024-05-09T19:37:54.247Z,96772.75
2024-05-09T19:40:28.163Z,96778.19
2024-05-09T19:42:57.586Z,96779.59
2024-05-09T19:45:24.108Z,96791.16
2024-05-09T19:47:51.268Z,96787.03
2024-05-09T19:50:26.616Z,96787.16
2024-05-09T19:52:59.757Z,96780.81
2024-05-09T19:55:26.638Z,96796.22
2024-05-09T19:57:53.789Z,96788.38
2024-05-09T20:00:26.244Z,96783.78
2024-05-09T20:02:59.298Z,96784.66
2024-05-09T20:05:27.353Z,96782.50
2024-05-09T20:07:55.538Z,96782.31
2024-05-09T20:10:26.218Z,96779.03
2024-05-09T20:12:56.753Z,96775.59
2024-05-09T20:15:23.682Z,96779.59
2024-05-09T20:17:50.645Z,96787.56
2024-05-09T20:20:28.027Z,96785.13
2024-05-09T20:23:02.820Z,96789.19
2024-05-09T20:25:29.743Z,96795.56
2024-05-09T20:27:56.773Z,96793.56
2024-05-09T20:30:30.591Z,96795.13
2024-05-09T20:32:59.277Z,96794.34
2024-05-09T20:35:25.936Z,96793.19
2024-05-09T20:37:52.442Z,96790.81
2024-05-09T20:40:25.772Z,96797.91
2024-05-09T20:42:58.296Z,96793.19
2024-05-09T20:45:24.852Z,96795.59
2024-05-09T20:47:51.496Z,96793.22
2024-05-09T20:50:27.876Z,96797.53
2024-05-09T20:53:02.437Z,96793.22
2024-05-09T20:55:29.003Z,96785.31
2024-05-09T20:57:55.556Z,96790.06
2024-05-09T21:00:29.830Z,96789.28
2024-05-09T21:03:03.832Z,96793.59
2024-05-09T21:05:30.707Z,96791.59
2024-05-09T21:07:57.499Z,96793.19
2024-05-09T21:10:26.955Z,96793.19
2024-05-09T21:12:54.011Z,96789.22
2024-05-09T21:15:20.601Z,96779.00
2024-05-09T21:17:47.238Z,96784.13
2024-05-09T21:20:17.525Z,96787.25
2024-05-09T21:22:47.339Z,96790.03
2024-05-09T21:25:14.286Z,96794.81
2024-05-09T21:27:41.067Z,96791.59
2024-05-09T21:30:13.123Z,96795.59
2024-05-09T21:32:45.729Z,96794.81
2024-05-09T21:35:12.474Z,96798.72
2024-05-09T21:37:39.082Z,96795.97
2024-05-09T21:40:11.264Z,96789.19
2024-05-09T21:42:40.347Z,96792.34
2024-05-09T21:45:06.908Z,96794.28
2024-05-09T21:47:33.550Z,96785.19
2024-05-09T21:50:00.258Z,96788.75
2024-05-09T21:52:26.795Z,96794.72
2024-05-09T21:54:53.342Z,96796.31
2024-05-09T21:57:19.914Z,96785.66
2024-05-09T21:59:46.518Z,96801.88
2024-05-09T22:02:13.209Z,96791.63
2024-05-09T22:04:39.883Z,96798.72
2024-05-09T22:07:06.633Z,96785.25
2024-05-09T22:09:33.288Z,96795.56
2024-05-09T22:11:59.842Z,96786.47
2024-05-09T22:14:26.388Z,96790.03
2024-05-09T22:16:53.044Z,96795.59
2024-05-09T22:19:19.613Z,96789.28
2024-05-09T22:21:46.260Z,96789.66
2024-05-09T22:24:12.878Z,96790.84
2024-05-09T22:26:39.401Z,96787.28
2024-05-09T22:29:06.039Z,96793.22
2024-05-09T22:31:32.647Z,96794.81
2024-05-09T22:33:59.691Z,96792.84
2024-05-09T22:36:26.711Z,96800.34
2024-05-09T22:38:53.600Z,96800.34
2024-05-09T22:41:20.515Z,96799.13
2024-05-09T22:43:47.447Z,96801.53
2024-05-09T22:46:14.458Z,96799.16
2024-05-09T22:48:41.623Z,96804.19
2024-05-09T22:51:08.628Z,96798.66
2024-05-09T22:53:35.597Z,96806.41
2024-05-09T22:56:02.702Z,96806.88
2024-05-09T22:58:29.760Z,96803.03
